createdAt,value
2019-04-16T00:01:56.360Z,45.91
2019-04-16T00:04:11.151Z,45.80
2019-04-16T00:06:28.146Z,46.03
2019-04-16T00:08:43.224Z,45.92
2019-04-16T00:10:54.737Z,45.82
2019-04-16T00:13:18.320Z,45.32
2019-04-16T00:15:25.961Z,45.18
2019-04-16T00:17:33.692Z,45.06
2019-04-16T00:19:41.092Z,45.18
2019-04-16T00:21:58.535Z,44.95
2019-04-16T00:24:18.274Z,45.18
2019-04-16T00:26:26.588Z,45.13
2019-04-16T00:28:32.135Z,44.84
2019-04-16T00:30:39.561Z,45.55
2019-04-16T00:32:46.925Z,45.25
2019-04-16T00:34:54.282Z,45.19
2019-04-16T00:37:01.771Z,45.54
2019-04-16T00:39:09.729Z,45.03
2019-04-16T00:41:17.117Z,45.44
2019-04-16T00:43:24.495Z,45.56
2019-04-16T00:45:31.850Z,45.40
2019-04-16T00:47:39.220Z,45.68
2019-04-16T00:49:46.638Z,45.90
2019-04-16T00:51:54.165Z,46.02
2019-04-16T00:54:01.931Z,46.10
2019-04-16T00:56:09.516Z,45.80
2019-04-16T00:58:19.694Z,46.03
2019-04-16T01:00:27.673Z,46.61
2019-04-16T01:02:36.117Z,46.52
2019-04-16T01:04:43.543Z,46.40
2019-04-16T01:06:50.959Z,46.58
2019-04-16T01:08:58.729Z,46.43
2019-04-16T01:11:06.102Z,47.52
2019-04-16T01:13:13.499Z,46.66
2019-04-16T01:15:21.336Z,46.73
2019-04-16T01:17:28.775Z,46.51
2019-04-16T01:19:38.331Z,46.46
2019-04-16T01:21:45.490Z,46.30
2019-04-16T01:23:52.944Z,46.30
2019-04-16T01:26:00.327Z,46.74
2019-04-16T01:28:11.250Z,47.64
2019-04-16T01:30:24.886Z,47.35
2019-04-16T01:32:49.501Z,47.82
2019-04-16T01:35:27.946Z,47.09
2019-04-16T01:38:00.255Z,47.50
2019-04-16T01:40:08.774Z,47.65
2019-04-16T01:42:16.143Z,48.06
2019-04-16T01:44:23.543Z,48.27
2019-04-16T01:46:32.796Z,48.57
2019-04-16T01:48:40.065Z,48.33
2019-04-16T01:50:47.438Z,47.73
2019-04-16T01:52:54.828Z,47.61
2019-04-16T01:55:02.178Z,48.01
2019-04-16T01:57:09.546Z,48.05
2019-04-16T01:59:16.954Z,48.01
2019-04-16T02:01:24.303Z,48.12
2019-04-16T02:03:31.717Z,49.17
2019-04-16T02:05:39.191Z,49.25
2019-04-16T02:07:46.545Z,49.11
2019-04-16T02:09:53.884Z,50.14
2019-04-16T02:12:01.265Z,50.26
2019-04-16T02:14:08.907Z,50.29
2019-04-16T02:16:16.379Z,50.19
2019-04-16T02:18:23.770Z,50.94
2019-04-16T02:20:31.120Z,50.99
2019-04-16T02:22:38.522Z,51.19
2019-04-16T02:24:47.801Z,51.54
2019-04-16T02:26:55.977Z,50.86
2019-04-16T02:29:03.384Z,49.77
2019-04-16T02:31:15.336Z,49.36
2019-04-16T02:33:19.880Z,49.97
2019-04-16T02:35:27.292Z,51.15
2019-04-16T02:37:36.418Z,51.54
2019-04-16T02:39:48.760Z,52.76
2019-04-16T02:41:57.025Z,52.30
2019-04-16T02:44:01.948Z,52.83
2019-04-16T02:46:09.321Z,51.69
2019-04-16T02:48:17.400Z,52.58
2019-04-16T02:50:43.615Z,52.87
2019-04-16T02:53:15.601Z,52.90
2019-04-16T02:55:43.938Z,54.09
2019-04-16T02:58:03.931Z,53.15
2019-04-16T03:00:31.105Z,54.42
2019-04-16T03:02:56.405Z,54.21
2019-04-16T03:05:26.516Z,53.24
2019-04-16T03:07:35.223Z,54.83
2019-04-16T03:09:42.593Z,55.11
2019-04-16T03:11:49.979Z,55.37
2019-04-16T03:13:59.307Z,55.56
2019-04-16T03:16:37.685Z,55.73
2019-04-16T03:19:08.330Z,54.30
2019-04-16T03:21:15.726Z,53.38
2019-04-16T03:23:23.195Z,55.53
2019-04-16T03:25:30.604Z,55.45
2019-04-16T03:27:38.060Z,55.79
2019-04-16T03:29:45.397Z,55.35
2019-04-16T03:31:57.421Z,56.12
2019-04-16T03:34:01.843Z,55.43
2019-04-16T03:36:09.186Z,55.15
2019-04-16T03:38:16.598Z,56.37
2019-04-16T03:40:25.783Z,56.83
2019-04-16T03:42:33.186Z,57.41
2019-04-16T03:44:40.563Z,56.01
2019-04-16T03:46:47.915Z,56.53
2019-04-16T03:48:56.372Z,57.14
2019-04-16T03:51:04.753Z,57.47
2019-04-16T03:53:16.338Z,57.38
2019-04-16T03:55:25.231Z,57.79
2019-04-16T03:57:33.271Z,57.22
2019-04-16T03:59:40.680Z,57.42
2019-04-16T04:01:48.351Z,58.51
2019-04-16T04:03:57.539Z,57.43
2019-04-16T04:06:06.926Z,57.82
2019-04-16T04:08:17.398Z,57.75
2019-04-16T04:10:30.292Z,57.64
2019-04-16T04:12:32.495Z,58.27
2019-04-16T04:14:39.931Z,58.84
2019-04-16T04:16:47.408Z,56.41
2019-04-16T04:18:54.796Z,57.30
2019-04-16T04:21:02.202Z,57.42
2019-04-16T04:23:09.746Z,57.19
2019-04-16T04:25:17.481Z,56.66
2019-04-16T04:27:24.813Z,55.79
2019-04-16T04:29:32.229Z,55.11
2019-04-16T04:31:39.610Z,54.56
2019-04-16T04:33:46.997Z,54.70
2019-04-16T04:35:54.357Z,53.64
2019-04-16T04:38:03.969Z,53.62
2019-04-16T04:40:12.790Z,54.29
2019-04-16T04:42:20.051Z,53.69
2019-04-16T04:44:27.578Z,53.57
2019-04-16T04:46:34.965Z,52.68
2019-04-16T04:48:42.389Z,54.09
2019-04-16T04:50:49.756Z,53.61
2019-04-16T04:52:57.187Z,53.72
2019-04-16T04:55:04.811Z,53.40
2019-04-16T04:57:12.205Z,53.24
2019-04-16T04:59:19.591Z,53.14
2019-04-16T05:01:26.995Z,51.89
2019-04-16T05:03:51.713Z,52.45
2019-04-16T05:06:00.564Z,51.92
2019-04-16T05:08:07.962Z,53.13
2019-04-16T05:10:15.618Z,51.35
2019-04-16T05:12:23.085Z,51.14
2019-04-16T05:14:30.742Z,51.18
2019-04-16T05:16:38.201Z,51.20
2019-04-16T05:18:45.671Z,50.65
2019-04-16T05:20:53.032Z,49.38
2019-04-16T05:23:00.538Z,50.10
2019-04-16T05:25:08.792Z,49.93
2019-04-16T05:27:16.434Z,49.71
2019-04-16T05:29:23.968Z,49.81
2019-04-16T05:31:31.486Z,49.84
2019-04-16T05:33:38.866Z,50.64
2019-04-16T05:35:46.247Z,48.81
2019-04-16T05:37:54.150Z,48.81
2019-04-16T05:40:01.642Z,48.33
2019-04-16T05:42:09.329Z,47.81
2019-04-16T05:44:16.732Z,48.84
2019-04-16T05:46:24.202Z,49.26
2019-04-16T05:48:31.569Z,49.00
2019-04-16T05:50:39.001Z,48.37
2019-04-16T05:52:46.415Z,49.39
2019-04-16T05:55:30.968Z,48.34
2019-04-16T05:57:40.375Z,48.08
2019-04-16T05:59:47.862Z,47.68
2019-04-16T06:02:01.409Z,47.64
2019-04-16T06:04:08.889Z,46.90
2019-04-16T06:06:16.542Z,46.66
2019-04-16T06:08:24.004Z,45.90
2019-04-16T06:10:31.685Z,46.53
2019-04-16T06:12:52.268Z,47.08
2019-04-16T06:15:21.291Z,46.09
2019-04-16T06:17:44.211Z,45.63
2019-04-16T06:20:20.722Z,46.09
2019-04-16T06:22:31.515Z,46.03
2019-04-16T06:25:08.257Z,45.34
2019-04-16T06:27:27.333Z,46.09
2019-04-16T06:29:47.021Z,45.09
2019-04-16T06:32:16.004Z,45.32
2019-04-16T06:34:51.261Z,44.31
2019-04-16T06:37:23.366Z,44.57
2019-04-16T06:39:36.453Z,45.29
2019-04-16T06:42:05.401Z,43.44
2019-04-16T06:44:16.819Z,44.03
2019-04-16T06:46:34.391Z,44.11
2019-04-16T06:49:03.381Z,44.28
2019-04-16T06:51:44.797Z,44.97
2019-04-16T06:54:11.222Z,44.50
2019-04-16T06:56:37.387Z,44.14
2019-04-16T06:59:03.162Z,43.70
2019-04-16T07:01:28.086Z,42.53
2019-04-16T07:03:58.484Z,42.53
2019-04-16T07:06:20.945Z,41.81
2019-04-16T07:08:38.181Z,41.91
2019-04-16T07:10:56.365Z,41.05
2019-04-16T07:13:03.872Z,39.77
2019-04-16T07:15:11.786Z,40.17
2019-04-16T07:17:19.216Z,41.51
2019-04-16T07:19:26.678Z,40.24
2019-04-16T07:21:34.228Z,40.04
2019-04-16T07:23:45.399Z,39.21
2019-04-16T07:25:50.831Z,38.63
2019-04-16T07:28:16.940Z,38.00
2019-04-16T07:30:45.883Z,38.35
2019-04-16T07:33:12.422Z,36.95
2019-04-16T07:35:38.603Z,37.38
2019-04-16T07:38:04.999Z,37.50
2019-04-16T07:40:29.807Z,35.76
2019-04-16T07:42:57.974Z,34.65
2019-04-16T07:45:13.732Z,35.02
2019-04-16T07:47:40.498Z,34.82
2019-04-16T07:50:01.772Z,34.63
2019-04-16T07:52:25.663Z,33.67
2019-04-16T07:55:04.153Z,33.92
2019-04-16T07:57:11.701Z,33.76
2019-04-16T07:59:20.912Z,34.17
2019-04-16T08:01:28.523Z,33.31
2019-04-16T08:03:36.124Z,34.20
2019-04-16T08:05:43.532Z,33.71
2019-04-16T08:07:52.777Z,33.48
2019-04-16T08:10:02.130Z,33.85
2019-04-16T08:12:21.983Z,33.64
2019-04-16T08:14:18.740Z,34.02
2019-04-16T08:16:26.165Z,33.14
2019-04-16T08:18:33.849Z,33.58
2019-04-16T08:20:41.275Z,33.29
2019-04-16T08:22:49.776Z,33.20
2019-04-16T08:25:03.224Z,32.63
2019-04-16T08:27:10.321Z,32.88
2019-04-16T08:29:18.428Z,33.43
2019-04-16T08:31:28.579Z,32.63
2019-04-16T08:33:36.055Z,32.57
2019-04-16T08:35:43.518Z,32.62
2019-04-16T08:37:50.965Z,32.38
2019-04-16T08:39:58.706Z,32.56
2019-04-16T08:42:06.350Z,30.91
2019-04-16T08:44:13.940Z,32.02
2019-04-16T08:46:21.696Z,31.64
2019-04-16T08:48:29.474Z,30.81
2019-04-16T08:50:36.939Z,31.95
2019-04-16T08:52:44.897Z,31.51
2019-04-16T08:54:54.890Z,30.61
2019-04-16T08:57:02.767Z,30.65
2019-04-16T08:59:11.266Z,30.08
2019-04-16T09:01:24.033Z,30.25
2019-04-16T09:03:31.550Z,29.09
2019-04-16T09:05:41.450Z,29.92
2019-04-16T09:07:50.912Z,28.79
2019-04-16T09:09:58.787Z,28.93
2019-04-16T09:12:09.378Z,29.40
2019-04-16T09:14:21.049Z,29.26
2019-04-16T09:16:26.409Z,29.37
2019-04-16T09:18:43.466Z,28.91
2019-04-16T09:20:51.386Z,29.38
2019-04-16T09:22:59.539Z,28.61
2019-04-16T09:25:38.492Z,28.90
2019-04-16T09:27:49.523Z,29.25
2019-04-16T09:30:18.020Z,29.75
2019-04-16T09:32:39.677Z,29.28
2019-04-16T09:35:19.914Z,29.63
2019-04-16T09:37:35.636Z,28.81
2019-04-16T09:40:15.454Z,28.57
2019-04-16T09:42:10.638Z,28.20
2019-04-16T09:44:18.130Z,28.41
2019-04-16T09:46:49.572Z,28.64
2019-04-16T09:48:36.233Z,29.40
2019-04-16T09:50:47.686Z,28.84
2019-04-16T09:52:55.395Z,29.03
2019-04-16T09:55:02.769Z,29.20
2019-04-16T09:57:10.337Z,28.72
2019-04-16T09:59:39.805Z,27.82
2019-04-16T10:01:49.963Z,27.05
2019-04-16T10:03:57.427Z,27.33
2019-04-16T10:06:05.665Z,27.03
2019-04-16T10:08:13.925Z,27.73
2019-04-16T10:10:24.277Z,27.79
2019-04-16T10:12:30.546Z,28.77
2019-04-16T10:14:37.982Z,29.07
2019-04-16T10:16:45.633Z,29.18
2019-04-16T10:18:53.092Z,28.75
2019-04-16T10:21:00.504Z,29.49
2019-04-16T10:23:12.865Z,29.51
2019-04-16T10:25:20.246Z,29.93
2019-04-16T10:27:48.949Z,28.17
2019-04-16T10:29:56.364Z,29.08
2019-04-16T10:32:03.973Z,28.71
2019-04-16T10:34:12.083Z,29.27
2019-04-16T10:36:19.914Z,29.12
2019-04-16T10:38:35.824Z,28.84
2019-04-16T10:40:50.871Z,29.17
2019-04-16T10:43:17.281Z,29.59
2019-04-16T10:45:52.604Z,29.36
2019-04-16T10:48:26.439Z,29.82
2019-04-16T10:50:42.897Z,29.71
2019-04-16T10:53:09.016Z,28.95
2019-04-16T10:55:50.724Z,29.18
2019-04-16T10:58:15.621Z,29.36
2019-04-16T11:01:01.176Z,29.53
2019-04-16T11:03:14.462Z,29.56
2019-04-16T11:05:44.095Z,29.74
2019-04-16T11:07:51.799Z,28.80
2019-04-16T11:09:59.788Z,28.78
2019-04-16T11:12:07.955Z,28.41
2019-04-16T11:14:15.813Z,28.18
2019-04-16T11:16:23.603Z,28.53
2019-04-16T11:18:31.436Z,28.63
2019-04-16T11:20:39.258Z,28.78
2019-04-16T11:22:47.114Z,28.03
2019-04-16T11:24:55.026Z,28.54
2019-04-16T11:27:02.992Z,28.83
2019-04-16T11:29:11.272Z,28.49
2019-04-16T11:31:21.430Z,28.46
2019-04-16T11:33:29.624Z,28.41
2019-04-16T11:35:37.545Z,28.58
2019-04-16T11:37:45.462Z,28.60
2019-04-16T11:39:53.506Z,28.63
2019-04-16T11:42:01.518Z,28.34
2019-04-16T11:44:15.671Z,27.53
2019-04-16T11:46:19.103Z,28.36
2019-04-16T11:48:27.068Z,27.73
2019-04-16T11:50:36.176Z,28.33
2019-04-16T11:52:44.398Z,28.54
2019-04-16T11:54:52.313Z,28.32
2019-04-16T11:57:00.254Z,28.53
2019-04-16T11:59:08.232Z,28.34
2019-04-16T12:01:34.844Z,28.80
2019-04-16T12:04:04.279Z,28.97
2019-04-16T12:06:28.881Z,29.35
2019-04-16T12:08:53.054Z,29.33
2019-04-16T12:11:14.344Z,29.29
2019-04-16T12:13:40.591Z,29.62
2019-04-16T12:16:21.270Z,30.04
2019-04-16T12:18:37.530Z,30.30
2019-04-16T12:21:09.798Z,30.04
2019-04-16T12:23:38.988Z,30.53
2019-04-16T12:26:08.845Z,30.18
2019-04-16T12:28:33.664Z,29.95
2019-04-16T12:31:06.449Z,30.77
2019-04-16T12:33:45.031Z,31.11
2019-04-16T12:36:12.764Z,31.17
2019-04-16T12:38:24.813Z,31.71
2019-04-16T12:40:42.325Z,31.97
2019-04-16T12:43:17.697Z,32.20
2019-04-16T12:45:56.052Z,32.86
2019-04-16T12:48:13.255Z,33.39
2019-04-16T12:50:42.738Z,33.63
2019-04-16T12:53:18.522Z,33.76
2019-04-16T12:55:43.973Z,34.21
2019-04-16T12:58:06.817Z,34.46
2019-04-16T13:00:32.305Z,34.55
2019-04-16T13:03:07.696Z,34.52
2019-04-16T13:05:21.752Z,34.51
2019-04-16T13:07:54.325Z,34.28
2019-04-16T13:10:18.428Z,34.57
2019-04-16T13:12:32.632Z,34.51
2019-04-16T13:15:07.206Z,35.19
2019-04-16T13:17:36.748Z,35.33
2019-04-16T13:20:18.330Z,35.57
2019-04-16T13:22:29.620Z,36.13
2019-04-16T13:24:49.761Z,36.02
2019-04-16T13:27:04.954Z,35.98
2019-04-16T13:29:21.022Z,35.95
2019-04-16T13:31:28.458Z,35.92
2019-04-16T13:33:35.953Z,36.22
2019-04-16T13:35:43.521Z,36.60
2019-04-16T13:37:51.069Z,36.72
2019-04-16T13:40:02.663Z,37.14
2019-04-16T13:42:10.963Z,37.22
2019-04-16T13:44:19.740Z,37.49
2019-04-16T13:46:29.485Z,38.61
2019-04-16T13:48:46.165Z,40.09
2019-04-16T13:51:03.103Z,42.17
2019-04-16T13:53:28.965Z,44.84
2019-04-16T13:55:59.245Z,46.43
2019-04-16T13:58:18.660Z,47.51
2019-04-16T14:00:38.215Z,46.99
2019-04-16T14:02:54.117Z,48.07
2019-04-16T14:05:04.262Z,52.46
2019-04-16T14:07:10.916Z,51.12
2019-04-16T14:09:18.452Z,53.28
2019-04-16T14:11:25.868Z,49.83
2019-04-16T14:13:33.366Z,50.98
2019-04-16T14:15:44.498Z,54.17
2019-04-16T14:17:52.814Z,53.10
2019-04-16T14:19:59.161Z,53.96
2019-04-16T14:22:06.996Z,52.01
2019-04-16T14:24:14.734Z,55.18
2019-04-16T14:26:22.099Z,55.00
2019-04-16T14:28:34.245Z,56.20
2019-04-16T14:30:43.509Z,58.06
2019-04-16T14:32:51.279Z,59.74
2019-04-16T14:35:00.828Z,58.58
2019-04-16T14:37:08.328Z,56.94
2019-04-16T14:39:23.394Z,61.42
2019-04-16T14:41:30.987Z,65.17
2019-04-16T14:43:41.910Z,58.56
2019-04-16T14:45:58.056Z,64.58
2019-04-16T14:48:01.332Z,61.37
2019-04-16T14:50:13.059Z,60.53
2019-04-16T14:52:19.274Z,61.05
2019-04-16T14:54:38.263Z,62.74
2019-04-16T14:56:48.212Z,61.63
2019-04-16T14:59:09.989Z,60.60
2019-04-16T15:01:45.680Z,61.14
2019-04-16T15:04:17.486Z,60.81
2019-04-16T15:06:52.915Z,66.02
2019-04-16T15:09:07.927Z,65.55
2019-04-16T15:11:52.577Z,63.39
2019-04-16T15:14:23.342Z,63.92
2019-04-16T15:16:52.684Z,63.92
2019-04-16T15:19:21.973Z,64.68
2019-04-16T15:21:53.951Z,64.87
2019-04-16T15:24:18.123Z,60.85
2019-04-16T15:26:36.838Z,63.38
2019-04-16T15:28:55.199Z,63.37
2019-04-16T15:31:10.361Z,65.42
2019-04-16T15:33:42.895Z,64.11
2019-04-16T15:36:04.035Z,64.39
2019-04-16T15:38:30.535Z,66.94
2019-04-16T15:40:40.584Z,67.04
2019-04-16T15:43:19.168Z,64.90
2019-04-16T15:45:43.514Z,64.36
2019-04-16T15:48:08.442Z,67.42
2019-04-16T15:50:24.060Z,64.55
2019-04-16T15:52:46.296Z,66.29
2019-04-16T15:55:24.263Z,63.94
2019-04-16T15:57:42.698Z,64.58
2019-04-16T16:00:14.890Z,64.77
2019-04-16T16:02:36.359Z,65.63
2019-04-16T16:05:03.273Z,64.49
2019-04-16T16:07:13.819Z,68.82
2019-04-16T16:09:25.179Z,65.91
2019-04-16T16:11:38.453Z,66.47
2019-04-16T16:13:46.036Z,66.80
2019-04-16T16:15:53.601Z,65.76
2019-04-16T16:18:01.349Z,63.97
2019-04-16T16:20:11.394Z,63.64
2019-04-16T16:22:19.686Z,63.43
2019-04-16T16:24:27.299Z,65.38
2019-04-16T16:26:34.974Z,64.25
2019-04-16T16:28:42.631Z,65.06
2019-04-16T16:30:50.332Z,62.87
2019-04-16T16:32:58.218Z,65.26
2019-04-16T16:35:16.805Z,64.51
2019-04-16T16:37:21.500Z,64.17
2019-04-16T16:39:29.194Z,63.05
2019-04-16T16:41:36.626Z,63.03
2019-04-16T16:43:44.072Z,65.83
2019-04-16T16:46:05.664Z,64.75
2019-04-16T16:48:13.213Z,63.94
2019-04-16T16:50:21.734Z,64.81
2019-04-16T16:53:00.500Z,65.46
2019-04-16T16:55:11.223Z,64.47
2019-04-16T16:57:22.623Z,67.54
2019-04-16T16:59:50.767Z,67.32
2019-04-16T17:02:20.142Z,67.12
2019-04-16T17:04:33.970Z,67.08
2019-04-16T17:06:41.527Z,64.82
2019-04-16T17:08:49.215Z,68.98
2019-04-16T17:10:56.873Z,67.12
2019-04-16T17:13:04.700Z,67.30
2019-04-16T17:15:12.699Z,67.66
2019-04-16T17:17:20.764Z,70.87
2019-04-16T17:19:29.217Z,71.07
2019-04-16T17:21:36.980Z,72.41
2019-04-16T17:23:44.752Z,69.61
2019-04-16T17:25:52.700Z,71.31
2019-04-16T17:28:00.768Z,73.25
2019-04-16T17:30:09.193Z,71.69
2019-04-16T17:32:16.859Z,72.94
2019-04-16T17:34:24.405Z,71.77
2019-04-16T17:36:32.176Z,72.20
2019-04-16T17:38:39.697Z,73.48
2019-04-16T17:41:07.955Z,74.60
2019-04-16T17:43:22.294Z,74.65
2019-04-16T17:45:53.685Z,76.17
2019-04-16T17:48:13.343Z,76.74
2019-04-16T17:50:51.574Z,77.18
2019-04-16T17:53:15.748Z,77.52
2019-04-16T17:55:39.820Z,78.01
2019-04-16T17:57:57.457Z,76.57
2019-04-16T18:00:23.704Z,78.22
2019-04-16T18:02:53.063Z,79.14
2019-04-16T18:05:23.270Z,79.35
2019-04-16T18:07:47.605Z,79.70
2019-04-16T18:10:17.170Z,79.27
2019-04-16T18:12:38.746Z,79.44
2019-04-16T18:15:17.067Z,79.40
2019-04-16T18:17:47.683Z,79.62
2019-04-16T18:20:17.516Z,79.75
2019-04-16T18:22:30.990Z,78.76
2019-04-16T18:24:56.269Z,79.87
2019-04-16T18:27:31.361Z,80.41
2019-04-16T18:30:05.237Z,79.60
2019-04-16T18:32:30.788Z,79.07
2019-04-16T18:34:56.943Z,78.80
2019-04-16T18:37:21.851Z,80.33
2019-04-16T18:40:06.332Z,78.84
2019-04-16T18:42:34.445Z,79.95
2019-04-16T18:44:59.599Z,78.31
2019-04-16T18:47:26.233Z,77.58
2019-04-16T18:49:33.894Z,77.74
2019-04-16T18:51:41.376Z,74.52
2019-04-16T18:53:48.896Z,74.61
2019-04-16T18:55:56.638Z,74.89
2019-04-16T18:58:04.186Z,76.81
2019-04-16T19:00:31.905Z,76.27
2019-04-16T19:02:42.190Z,76.12
2019-04-16T19:04:50.922Z,76.21
2019-04-16T19:06:58.121Z,73.04
2019-04-16T19:09:07.884Z,74.88
2019-04-16T19:11:15.823Z,67.55
2019-04-16T19:13:23.499Z,73.92
2019-04-16T19:15:31.152Z,77.55
2019-04-16T19:17:39.589Z,77.49
2019-04-16T19:19:47.040Z,75.31
2019-04-16T19:21:54.852Z,74.93
2019-04-16T19:24:02.833Z,76.38
2019-04-16T19:26:10.495Z,77.26
2019-04-16T19:28:20.400Z,76.05
2019-04-16T19:30:27.906Z,78.81
2019-04-16T19:32:35.462Z,76.89
2019-04-16T19:34:42.943Z,79.23
2019-04-16T19:36:51.063Z,78.95
2019-04-16T19:38:58.968Z,74.34
2019-04-16T19:41:07.152Z,74.81
2019-04-16T19:43:15.438Z,75.32
2019-04-16T19:45:23.039Z,74.26
2019-04-16T19:47:31.084Z,75.14
2019-04-16T19:49:38.612Z,76.10
2019-04-16T19:51:46.223Z,77.21
2019-04-16T19:53:53.782Z,78.67
2019-04-16T19:56:01.919Z,73.08
2019-04-16T19:58:09.764Z,74.41
2019-04-16T20:00:22.046Z,72.33
2019-04-16T20:02:27.009Z,76.30
2019-04-16T20:04:35.006Z,74.48
2019-04-16T20:06:42.648Z,72.56
2019-04-16T20:08:50.298Z,70.51
2019-04-16T20:10:58.447Z,69.64
2019-04-16T20:13:06.271Z,69.23
2019-04-16T20:15:14.428Z,72.26
2019-04-16T20:17:22.095Z,72.05
2019-04-16T20:19:30.000Z,70.14
2019-04-16T20:21:38.177Z,72.63
2019-04-16T20:23:45.801Z,71.82
2019-04-16T20:25:56.341Z,71.11
2019-04-16T20:28:03.042Z,74.54
2019-04-16T20:30:12.564Z,72.46
2019-04-16T20:32:20.204Z,72.70
2019-04-16T20:34:27.824Z,72.08
2019-04-16T20:36:35.464Z,74.10
2019-04-16T20:38:42.970Z,74.40
2019-04-16T20:40:51.503Z,73.33
2019-04-16T20:42:59.007Z,74.48
2019-04-16T20:45:07.233Z,74.05
2019-04-16T20:47:14.779Z,73.94
2019-04-16T20:49:22.250Z,74.50
2019-04-16T20:51:29.795Z,71.34
2019-04-16T20:53:38.038Z,72.02
2019-04-16T20:55:47.474Z,73.54
2019-04-16T20:57:58.574Z,72.96
2019-04-16T21:00:10.569Z,73.64
2019-04-16T21:02:15.117Z,73.42
2019-04-16T21:04:23.683Z,73.50
2019-04-16T21:06:31.570Z,72.50
2019-04-16T21:08:39.572Z,71.60
2019-04-16T21:10:47.462Z,73.75
2019-04-16T21:12:55.565Z,71.24
2019-04-16T21:15:03.694Z,72.71
2019-04-16T21:17:11.147Z,72.96
2019-04-16T21:19:23.133Z,71.19
2019-04-16T21:21:28.270Z,71.21
2019-04-16T21:23:35.959Z,71.00
2019-04-16T21:25:45.924Z,71.12
2019-04-16T21:28:26.544Z,71.46
2019-04-16T21:30:34.174Z,70.56
2019-04-16T21:32:52.075Z,71.04
2019-04-16T21:35:01.071Z,72.86
2019-04-16T21:37:27.556Z,70.44
2019-04-16T21:39:40.271Z,72.50
2019-04-16T21:41:47.663Z,71.06
2019-04-16T21:43:55.158Z,70.00
2019-04-16T21:46:02.596Z,71.32
2019-04-16T21:48:12.319Z,71.37
2019-04-16T21:50:19.341Z,70.33
2019-04-16T21:52:27.731Z,71.83
2019-04-16T21:54:35.403Z,71.11
2019-04-16T21:56:42.893Z,70.96
2019-04-16T21:58:50.429Z,72.26
2019-04-16T22:01:18.414Z,69.33
2019-04-16T22:03:27.434Z,71.79
2019-04-16T22:05:34.919Z,72.47
2019-04-16T22:07:42.743Z,70.88
2019-04-16T22:09:50.405Z,70.82
2019-04-16T22:11:58.188Z,71.51
2019-04-16T22:14:06.265Z,73.36
2019-04-16T22:16:14.263Z,73.55
2019-04-16T22:18:22.371Z,73.42
2019-04-16T22:20:31.826Z,70.74
2019-04-16T22:22:39.182Z,70.03
2019-04-16T22:24:46.741Z,71.73
2019-04-16T22:26:54.313Z,71.06
2019-04-16T22:29:01.875Z,72.53
2019-04-16T22:31:09.612Z,70.97
2019-04-16T22:33:17.417Z,69.47
2019-04-16T22:35:24.848Z,71.95
2019-04-16T22:37:32.187Z,71.23
2019-04-16T22:39:56.940Z,70.98
2019-04-16T22:42:38.370Z,70.48
2019-04-16T22:44:52.368Z,70.49
2019-04-16T22:47:18.445Z,71.25
2019-04-16T22:49:25.759Z,72.10
2019-04-16T22:51:33.073Z,70.97
2019-04-16T22:53:40.319Z,70.83
2019-04-16T22:55:47.803Z,71.85
2019-04-16T22:57:54.987Z,70.54
2019-04-16T23:00:02.559Z,71.57
2019-04-16T23:02:22.227Z,71.42
2019-04-16T23:04:29.707Z,71.44
2019-04-16T23:06:38.733Z,71.01
2019-04-16T23:08:45.835Z,70.08
2019-04-16T23:10:53.311Z,70.35
2019-04-16T23:13:01.565Z,71.37
2019-04-16T23:15:11.642Z,68.57
2019-04-16T23:17:20.476Z,69.73
2019-04-16T23:19:28.371Z,69.14
2019-04-16T23:21:35.741Z,69.63
2019-04-16T23:23:43.041Z,69.84
2019-04-16T23:25:50.668Z,69.49
2019-04-16T23:27:58.123Z,69.71
2019-04-16T23:30:05.941Z,69.90
2019-04-16T23:32:13.544Z,69.41
2019-04-16T23:34:20.910Z,69.02
2019-04-16T23:36:28.164Z,69.92
2019-04-16T23:38:35.572Z,70.14
2019-04-16T23:40:43.923Z,69.27
2019-04-16T23:43:12.170Z,71.20
2019-04-16T23:45:44.094Z,69.71
2019-04-16T23:48:16.244Z,71.57
2019-04-16T23:50:44.704Z,70.51
2019-04-16T23:52:47.978Z,70.60
2019-04-16T23:54:58.540Z,72.19
2019-04-16T23:57:15.119Z,71.83
2019-04-16T23:59:35.949Z,69.81
